createdAt,value
2023-05-05T00:01:09.035Z,61.06
2023-05-05T00:03:35.814Z,61.00
2023-05-05T00:06:03.158Z,61.33
2023-05-05T00:08:30.030Z,61.87
2023-05-05T00:10:57.449Z,62.33
2023-05-05T00:13:24.407Z,62.76
2023-05-05T00:15:52.481Z,63.58
2023-05-05T00:18:19.608Z,63.74
2023-05-05T00:20:47.435Z,63.84
2023-05-05T00:23:19.669Z,63.33
2023-05-05T00:25:46.252Z,63.22
2023-05-05T00:28:14.368Z,63.37
2023-05-05T00:30:41.413Z,63.99
2023-05-05T00:33:07.889Z,64.66
2023-05-05T00:35:34.619Z,64.65
2023-05-05T00:38:01.002Z,64.03
2023-05-05T00:40:27.724Z,64.31
2023-05-05T00:42:54.433Z,63.90
2023-05-05T00:45:20.869Z,63.60
2023-05-05T00:48:06.577Z,63.40
2023-05-05T00:50:33.130Z,63.45
2023-05-05T00:53:04.915Z,63.50
2023-05-05T00:55:32.238Z,64.16
2023-05-05T00:58:00.384Z,64.18
2023-05-05T01:00:27.871Z,64.13
2023-05-05T01:02:54.512Z,64.06
2023-05-05T01:05:23.153Z,63.61
2023-05-05T01:08:18.434Z,63.53
2023-05-05T01:11:04.065Z,64.00
2023-05-05T01:13:39.509Z,63.96
2023-05-05T01:16:18.157Z,63.97
2023-05-05T01:18:47.764Z,63.88
2023-05-05T01:21:23.526Z,64.61
2023-05-05T01:24:08.739Z,65.93
2023-05-05T01:26:55.206Z,66.79
2023-05-05T01:29:44.918Z,66.56
2023-05-05T01:32:14.373Z,67.30
2023-05-05T01:34:49.795Z,67.72
2023-05-05T01:37:22.812Z,67.58
2023-05-05T01:39:54.334Z,67.54
2023-05-05T01:42:22.320Z,67.65
2023-05-05T01:44:50.828Z,68.07
2023-05-05T01:47:20.839Z,68.33
2023-05-05T01:49:48.680Z,68.32
2023-05-05T01:52:16.170Z,68.75
2023-05-05T01:54:43.983Z,68.31
2023-05-05T01:57:11.691Z,68.60
2023-05-05T01:59:39.719Z,68.86
2023-05-05T02:02:08.274Z,69.33
2023-05-05T02:04:37.305Z,69.67
2023-05-05T02:07:05.012Z,69.64
2023-05-05T02:09:32.716Z,69.64
2023-05-05T02:12:00.534Z,70.08
2023-05-05T02:14:29.483Z,70.16
2023-05-05T02:16:58.058Z,70.40
2023-05-05T02:19:34.287Z,70.46
2023-05-05T02:22:00.873Z,70.75
2023-05-05T02:24:27.340Z,74.78
2023-05-05T02:26:56.459Z,77.17
2023-05-05T02:29:29.517Z,77.92
2023-05-05T02:32:02.102Z,78.54
2023-05-05T02:34:34.882Z,78.79
2023-05-05T02:37:05.232Z,78.86
2023-05-05T02:39:35.361Z,79.55
2023-05-05T02:42:03.913Z,79.41
2023-05-05T02:44:32.895Z,79.00
2023-05-05T02:46:59.383Z,78.34
2023-05-05T02:49:25.885Z,77.74
2023-05-05T02:51:52.455Z,77.39
2023-05-05T02:54:19.370Z,77.18
2023-05-05T02:56:54.302Z,77.51
2023-05-05T02:59:50.840Z,77.26
2023-05-05T03:02:17.213Z,76.95
2023-05-05T03:04:50.706Z,77.30
2023-05-05T03:07:33.399Z,77.33
2023-05-05T03:10:13.823Z,77.08
2023-05-05T03:12:46.767Z,77.48
2023-05-05T03:15:14.213Z,77.83
2023-05-05T03:17:43.022Z,77.27
2023-05-05T03:20:11.128Z,77.58
2023-05-05T03:22:38.122Z,78.13
2023-05-05T03:25:05.042Z,78.43
2023-05-05T03:27:31.648Z,78.95
2023-05-05T03:29:58.044Z,79.40
2023-05-05T03:32:24.470Z,80.19
2023-05-05T03:34:50.967Z,80.18
2023-05-05T03:37:17.304Z,80.26
2023-05-05T03:39:43.645Z,80.06
2023-05-05T03:42:10.072Z,79.54
2023-05-05T03:44:36.578Z,79.51
2023-05-05T03:47:02.990Z,79.00
2023-05-05T03:49:29.425Z,78.69
2023-05-05T03:51:56.195Z,78.48
2023-05-05T03:54:22.646Z,78.96
2023-05-05T03:56:49.096Z,79.93
2023-05-05T03:59:15.920Z,80.54
2023-05-05T04:01:42.244Z,80.88
2023-05-05T04:04:09.452Z,81.22
2023-05-05T04:06:35.957Z,81.10
2023-05-05T04:09:03.186Z,81.48
2023-05-05T04:11:29.599Z,81.72
2023-05-05T04:13:56.160Z,82.29
2023-05-05T04:16:22.834Z,82.60
2023-05-05T04:18:49.527Z,82.79
2023-05-05T04:21:16.082Z,82.70
2023-05-05T04:23:42.523Z,82.84
2023-05-05T04:26:08.941Z,82.82
2023-05-05T04:28:35.344Z,82.50
2023-05-05T04:31:04.780Z,82.39
2023-05-05T04:33:31.261Z,82.49
2023-05-05T04:35:58.278Z,82.71
2023-05-05T04:38:24.873Z,82.24
2023-05-05T04:40:51.310Z,82.87
2023-05-05T04:43:17.719Z,82.57
2023-05-05T04:45:54.189Z,82.97
2023-05-05T04:48:20.838Z,82.85
2023-05-05T04:50:47.398Z,82.51
2023-05-05T04:53:13.854Z,82.35
2023-05-05T04:55:40.328Z,82.07
2023-05-05T04:58:06.669Z,82.11
2023-05-05T05:00:33.175Z,82.63
2023-05-05T05:02:59.633Z,82.82
2023-05-05T05:05:26.094Z,82.89
2023-05-05T05:07:52.574Z,83.07
2023-05-05T05:10:19.180Z,82.37
2023-05-05T05:12:47.914Z,82.50
2023-05-05T05:15:14.563Z,82.62
2023-05-05T05:17:41.030Z,83.17
2023-05-05T05:20:08.231Z,82.51
2023-05-05T05:22:38.093Z,78.32
2023-05-05T05:25:04.849Z,72.71
2023-05-05T05:27:31.376Z,68.45
2023-05-05T05:29:59.074Z,64.59
2023-05-05T05:32:25.460Z,61.38
2023-05-05T05:34:52.073Z,59.83
2023-05-05T05:37:18.506Z,59.50
2023-05-05T05:39:51.993Z,58.57
2023-05-05T05:42:18.569Z,57.80
2023-05-05T05:44:45.210Z,56.80
2023-05-05T05:47:11.802Z,55.10
2023-05-05T05:49:38.217Z,54.86
2023-05-05T05:52:04.706Z,54.65
2023-05-05T05:54:32.636Z,53.42
2023-05-05T05:56:59.128Z,53.33
2023-05-05T05:59:25.723Z,52.56
2023-05-05T06:01:52.116Z,51.68
2023-05-05T06:04:18.559Z,50.48
2023-05-05T06:06:44.968Z,51.25
2023-05-05T06:09:11.452Z,51.42
2023-05-05T06:11:37.786Z,51.84
2023-05-05T06:14:04.206Z,51.08
2023-05-05T06:16:30.804Z,50.06
2023-05-05T06:18:57.285Z,48.96
2023-05-05T06:21:23.903Z,51.00
2023-05-05T06:23:50.904Z,54.28
2023-05-05T06:26:17.351Z,57.00
2023-05-05T06:28:43.739Z,58.61
2023-05-05T06:31:10.255Z,60.28
2023-05-05T06:33:37.790Z,60.82
2023-05-05T06:36:04.466Z,60.77
2023-05-05T06:38:31.018Z,61.71
2023-05-05T06:40:58.531Z,62.33
2023-05-05T06:43:25.216Z,62.25
2023-05-05T06:45:51.949Z,62.30
2023-05-05T06:48:18.485Z,63.11
2023-05-05T06:50:45.099Z,63.16
2023-05-05T06:53:11.641Z,62.19
2023-05-05T06:55:38.155Z,62.37
2023-05-05T06:58:04.525Z,62.88
2023-05-05T07:00:31.023Z,63.52
2023-05-05T07:02:57.466Z,63.77
2023-05-05T07:05:23.998Z,61.93
2023-05-05T07:07:54.794Z,61.85
2023-05-05T07:10:22.636Z,62.51
2023-05-05T07:12:49.936Z,62.72
2023-05-05T07:15:26.608Z,62.89
2023-05-05T07:17:54.948Z,61.54
2023-05-05T07:20:21.464Z,62.33
2023-05-05T07:22:47.878Z,62.81
2023-05-05T07:25:14.389Z,62.19
2023-05-05T07:27:40.968Z,61.74
2023-05-05T07:30:11.952Z,62.16
2023-05-05T07:32:40.791Z,62.32
2023-05-05T07:35:07.409Z,62.15
2023-05-05T07:37:34.096Z,61.13
2023-05-05T07:40:00.515Z,61.35
2023-05-05T07:42:26.949Z,60.24
2023-05-05T07:44:53.352Z,60.56
2023-05-05T07:47:19.869Z,60.24
2023-05-05T07:49:46.576Z,60.59
2023-05-05T07:52:13.106Z,59.83
2023-05-05T07:54:39.600Z,58.72
2023-05-05T07:57:06.092Z,58.30
2023-05-05T07:59:34.722Z,58.99
2023-05-05T08:02:01.444Z,57.51
2023-05-05T08:04:27.982Z,57.46
2023-05-05T08:06:54.767Z,59.00
2023-05-05T08:09:21.403Z,57.29
2023-05-05T08:11:48.011Z,57.31
2023-05-05T08:14:15.168Z,56.19
2023-05-05T08:16:41.730Z,56.56
2023-05-05T08:19:21.198Z,55.36
2023-05-05T08:21:54.482Z,56.90
2023-05-05T08:24:20.840Z,57.22
2023-05-05T08:26:47.277Z,56.59
2023-05-05T08:29:13.642Z,55.86
2023-05-05T08:31:40.149Z,54.31
2023-05-05T08:34:06.891Z,53.66
2023-05-05T08:36:33.716Z,52.62
2023-05-05T08:39:00.712Z,51.50
2023-05-05T08:41:27.999Z,52.64
2023-05-05T08:43:54.611Z,53.69
2023-05-05T08:46:22.067Z,53.74
2023-05-05T08:48:48.681Z,53.24
2023-05-05T08:51:19.918Z,53.70
2023-05-05T08:53:55.854Z,54.68
2023-05-05T08:56:25.791Z,53.84
2023-05-05T08:58:52.637Z,53.79
2023-05-05T09:01:19.348Z,53.71
2023-05-05T09:03:46.228Z,54.38
2023-05-05T09:06:13.139Z,53.76
2023-05-05T09:08:40.322Z,53.42
2023-05-05T09:11:06.907Z,53.63
2023-05-05T09:13:33.646Z,53.67
2023-05-05T09:16:00.023Z,53.69
2023-05-05T09:18:26.845Z,54.78
2023-05-05T09:20:53.427Z,54.19
2023-05-05T09:23:20.963Z,54.44
2023-05-05T09:26:02.013Z,54.16
2023-05-05T09:28:28.555Z,53.87
2023-05-05T09:30:55.041Z,53.98
2023-05-05T09:33:31.563Z,53.66
2023-05-05T09:35:58.745Z,53.56
2023-05-05T09:38:25.256Z,53.25
2023-05-05T09:40:53.193Z,52.56
2023-05-05T09:43:21.899Z,53.10
2023-05-05T09:45:49.515Z,54.19
2023-05-05T09:48:30.546Z,54.56
2023-05-05T09:50:58.338Z,54.29
2023-05-05T09:53:26.674Z,54.02
2023-05-05T09:55:58.068Z,55.13
2023-05-05T09:58:26.268Z,55.22
2023-05-05T10:00:53.894Z,55.70
2023-05-05T10:03:20.892Z,56.15
2023-05-05T10:05:56.435Z,57.08
2023-05-05T10:08:25.905Z,57.05
2023-05-05T10:10:52.513Z,57.56
2023-05-05T10:13:21.391Z,58.21
2023-05-05T10:15:51.356Z,57.36
2023-05-05T10:18:21.492Z,61.04
2023-05-05T10:20:52.027Z,64.82
2023-05-05T10:23:20.435Z,70.42
2023-05-05T10:25:54.450Z,74.76
2023-05-05T10:28:31.787Z,78.79
2023-05-05T10:31:00.535Z,79.70
2023-05-05T10:33:36.391Z,81.71
2023-05-05T10:36:06.539Z,83.18
2023-05-05T10:38:34.121Z,84.46
2023-05-05T10:41:02.139Z,85.58
2023-05-05T10:43:30.827Z,86.18
2023-05-05T10:45:58.934Z,86.28
2023-05-05T10:48:32.901Z,86.90
2023-05-05T10:51:08.266Z,87.00
2023-05-05T10:54:27.612Z,87.50
2023-05-05T10:56:54.535Z,87.47
2023-05-05T10:59:36.344Z,88.65
2023-05-05T11:02:28.951Z,90.07
2023-05-05T11:05:21.412Z,91.67
2023-05-05T11:07:50.536Z,92.04
2023-05-05T11:10:20.783Z,92.49
2023-05-05T11:13:00.112Z,93.01
2023-05-05T11:15:26.661Z,93.51
2023-05-05T11:17:54.998Z,94.23
2023-05-05T11:20:37.119Z,94.99
2023-05-05T11:23:03.695Z,95.44
2023-05-05T11:25:43.220Z,96.08
2023-05-05T11:28:18.699Z,96.17
2023-05-05T11:30:58.094Z,96.33
2023-05-05T11:33:39.907Z,96.81
2023-05-05T11:36:11.739Z,96.92
2023-05-05T11:39:05.456Z,97.61
2023-05-05T11:42:26.103Z,98.16
2023-05-05T11:44:53.394Z,98.58
2023-05-05T11:47:19.924Z,98.86
2023-05-05T11:49:46.462Z,98.87
2023-05-05T11:52:13.934Z,98.90
2023-05-05T11:54:48.616Z,99.33
2023-05-05T11:57:21.103Z,99.14
2023-05-05T11:59:53.435Z,99.47
2023-05-05T12:02:20.676Z,99.22
2023-05-05T12:04:47.791Z,99.39
2023-05-05T12:07:18.386Z,99.78
2023-05-05T12:09:46.244Z,99.86
2023-05-05T12:12:13.710Z,100.00
2023-05-05T12:14:47.339Z,100.00
2023-05-05T12:17:14.141Z,100.00
2023-05-05T12:19:54.297Z,100.00
2023-05-05T12:22:27.420Z,100.00
2023-05-05T12:25:04.037Z,100.00
2023-05-05T12:27:30.666Z,100.00
2023-05-05T12:30:10.274Z,100.00
2023-05-05T12:32:36.936Z,100.00
2023-05-05T12:35:03.638Z,100.00
2023-05-05T12:37:30.295Z,100.00
2023-05-05T12:39:56.848Z,100.00
2023-05-05T12:42:23.411Z,100.00
2023-05-05T12:44:50.087Z,100.00
2023-05-05T12:47:32.851Z,100.00
2023-05-05T12:50:00.327Z,100.00
2023-05-05T12:52:45.676Z,100.00
2023-05-05T12:55:12.923Z,100.00
2023-05-05T12:57:58.039Z,100.00
2023-05-05T13:00:25.213Z,100.00
2023-05-05T13:02:52.947Z,100.00
2023-05-05T13:05:32.742Z,100.00
2023-05-05T13:07:59.262Z,100.00
2023-05-05T13:10:25.711Z,100.00
2023-05-05T13:12:55.322Z,100.00
2023-05-05T13:15:21.794Z,100.00
2023-05-05T13:17:48.273Z,100.00
2023-05-05T13:20:15.430Z,100.00
2023-05-05T13:22:41.811Z,99.68
2023-05-05T13:25:08.541Z,99.68
2023-05-05T13:27:35.226Z,99.49
2023-05-05T13:30:01.806Z,99.31
2023-05-05T13:32:28.233Z,99.11
2023-05-05T13:34:54.599Z,99.07
2023-05-05T13:37:21.318Z,98.93
2023-05-05T13:39:47.689Z,99.00
2023-05-05T13:42:14.088Z,99.01
2023-05-05T13:44:40.488Z,98.88
2023-05-05T13:47:07.371Z,99.06
2023-05-05T13:49:35.036Z,98.95
2023-05-05T13:52:01.487Z,99.12
2023-05-05T13:54:28.035Z,98.79
2023-05-05T13:56:54.429Z,99.13
2023-05-05T13:59:21.755Z,99.09
2023-05-05T14:01:48.829Z,99.24
2023-05-05T14:04:15.445Z,99.20
2023-05-05T14:06:41.969Z,99.12
2023-05-05T14:09:08.383Z,99.52
2023-05-05T14:11:35.002Z,99.65
2023-05-05T14:14:01.631Z,99.38
2023-05-05T14:16:28.095Z,99.01
2023-05-05T14:18:54.548Z,98.55
2023-05-05T14:21:21.004Z,97.96
2023-05-05T14:23:47.356Z,97.80
2023-05-05T14:26:13.812Z,98.66
2023-05-05T14:28:40.265Z,98.22
2023-05-05T14:31:06.808Z,98.40
2023-05-05T14:33:33.246Z,98.60
2023-05-05T14:36:00.048Z,98.78
2023-05-05T14:38:26.482Z,98.42
2023-05-05T14:40:53.069Z,98.66
2023-05-05T14:43:20.649Z,98.93
2023-05-05T14:45:47.082Z,99.09
2023-05-05T14:48:13.559Z,99.22
2023-05-05T14:50:42.298Z,99.16
2023-05-05T14:53:08.863Z,98.55
2023-05-05T14:55:35.397Z,98.30
2023-05-05T14:58:01.757Z,97.31
2023-05-05T15:00:28.565Z,96.22
2023-05-05T15:02:55.088Z,97.04
2023-05-05T15:05:21.552Z,96.04
2023-05-05T15:07:48.035Z,94.18
2023-05-05T15:10:15.018Z,93.31
2023-05-05T15:12:42.713Z,92.76
2023-05-05T15:15:09.934Z,93.38
2023-05-05T15:17:38.610Z,92.31
2023-05-05T15:20:06.709Z,92.92
2023-05-05T15:22:33.163Z,93.50
2023-05-05T15:24:59.714Z,93.30
2023-05-05T15:27:26.365Z,93.63
2023-05-05T15:29:52.972Z,94.48
2023-05-05T15:32:19.325Z,94.80
2023-05-05T15:34:46.796Z,93.33
2023-05-05T15:37:14.113Z,93.31
2023-05-05T15:39:40.518Z,92.77
2023-05-05T15:42:07.379Z,92.40
2023-05-05T15:44:33.749Z,93.31
2023-05-05T15:47:00.236Z,92.20
2023-05-05T15:49:26.643Z,90.29
2023-05-05T15:51:52.975Z,88.57
2023-05-05T15:54:19.412Z,89.26
2023-05-05T15:56:45.906Z,90.10
2023-05-05T15:59:12.326Z,89.63
2023-05-05T16:01:39.034Z,88.80
2023-05-05T16:04:05.491Z,89.70
2023-05-05T16:06:32.049Z,88.11
2023-05-05T16:08:58.682Z,88.00
2023-05-05T16:11:26.526Z,88.67
2023-05-05T16:13:53.262Z,88.27
2023-05-05T16:16:19.685Z,89.74
2023-05-05T16:18:46.368Z,88.87
2023-05-05T16:21:13.157Z,85.43
2023-05-05T16:23:39.852Z,86.66
2023-05-05T16:26:06.238Z,85.50
2023-05-05T16:28:34.153Z,83.50
2023-05-05T16:31:02.300Z,84.83
2023-05-05T16:33:29.100Z,83.84
2023-05-05T16:35:55.942Z,81.83
2023-05-05T16:38:22.670Z,85.08
2023-05-05T16:40:49.027Z,84.44
2023-05-05T16:43:15.621Z,82.45
2023-05-05T16:45:42.099Z,79.41
2023-05-05T16:48:09.169Z,80.06
2023-05-05T16:50:35.944Z,78.84
2023-05-05T16:53:02.335Z,75.54
2023-05-05T16:55:28.815Z,77.21
2023-05-05T16:57:55.312Z,76.89
2023-05-05T17:00:21.824Z,76.77
2023-05-05T17:02:48.374Z,76.43
2023-05-05T17:05:15.078Z,71.82
2023-05-05T17:07:41.523Z,71.27
2023-05-05T17:10:08.579Z,70.49
2023-05-05T17:12:35.049Z,73.47
2023-05-05T17:15:02.047Z,70.12
2023-05-05T17:17:28.604Z,68.48
2023-05-05T17:19:54.981Z,68.36
2023-05-05T17:22:21.764Z,67.90
2023-05-05T17:24:48.221Z,65.82
2023-05-05T17:27:14.679Z,66.22
2023-05-05T17:29:41.309Z,65.76
2023-05-05T17:32:10.556Z,67.50
2023-05-05T17:34:37.356Z,67.28
2023-05-05T17:37:03.732Z,65.41
2023-05-05T17:39:30.975Z,65.60
2023-05-05T17:41:57.431Z,67.28
2023-05-05T17:44:23.827Z,65.91
2023-05-05T17:46:50.570Z,67.51
2023-05-05T17:49:16.919Z,67.01
2023-05-05T17:51:43.314Z,65.79
2023-05-05T17:54:09.786Z,65.58
2023-05-05T17:56:36.730Z,63.79
2023-05-05T17:59:03.201Z,63.51
2023-05-05T18:01:29.637Z,64.74
2023-05-05T18:03:56.165Z,64.75
2023-05-05T18:06:22.567Z,66.17
2023-05-05T18:08:49.297Z,67.53
2023-05-05T18:11:15.745Z,70.12
2023-05-05T18:13:43.218Z,70.13
2023-05-05T18:16:09.733Z,70.36
2023-05-05T18:18:36.317Z,71.10
2023-05-05T18:21:02.739Z,72.13
2023-05-05T18:23:29.241Z,72.85
2023-05-05T18:25:55.698Z,72.87
2023-05-05T18:28:22.102Z,73.44
2023-05-05T18:30:48.633Z,73.77
2023-05-05T18:33:15.013Z,74.31
2023-05-05T18:35:41.485Z,74.59
2023-05-05T18:38:07.991Z,75.21
2023-05-05T18:40:34.514Z,75.65
2023-05-05T18:43:00.985Z,76.62
2023-05-05T18:45:27.484Z,76.81
2023-05-05T18:47:53.992Z,77.13
2023-05-05T18:50:20.415Z,77.26
2023-05-05T18:52:46.812Z,77.71
2023-05-05T18:55:13.235Z,78.01
2023-05-05T18:57:39.788Z,78.63
2023-05-05T19:00:06.974Z,78.99
2023-05-05T19:02:33.478Z,79.15
2023-05-05T19:04:59.958Z,79.80
2023-05-05T19:07:34.883Z,79.59
2023-05-05T19:10:04.376Z,79.45
2023-05-05T19:12:30.917Z,79.63
2023-05-05T19:14:57.396Z,79.92
2023-05-05T19:17:23.999Z,80.22
2023-05-05T19:19:50.659Z,80.22
2023-05-05T19:22:21.743Z,80.63
2023-05-05T19:24:48.143Z,80.87
2023-05-05T19:27:16.565Z,81.24
2023-05-05T19:29:43.680Z,81.68
2023-05-05T19:32:10.293Z,82.74
2023-05-05T19:34:37.050Z,83.21
2023-05-05T19:37:03.593Z,83.33
2023-05-05T19:39:30.135Z,83.53
2023-05-05T19:41:56.640Z,83.65
2023-05-05T19:44:23.705Z,83.73
2023-05-05T19:46:50.391Z,83.89
2023-05-05T19:49:16.885Z,83.78
2023-05-05T19:51:43.775Z,84.01
2023-05-05T19:54:10.400Z,84.16
2023-05-05T19:56:36.906Z,84.31
2023-05-05T19:59:05.302Z,84.42
2023-05-05T20:01:33.076Z,84.56
2023-05-05T20:03:59.971Z,84.81
2023-05-05T20:06:26.962Z,85.04
2023-05-05T20:08:54.754Z,85.53
2023-05-05T20:11:21.840Z,85.34
2023-05-05T20:13:49.634Z,85.67
2023-05-05T20:16:16.379Z,85.95
2023-05-05T20:18:42.966Z,86.08
2023-05-05T20:21:09.381Z,86.14
2023-05-05T20:23:36.489Z,86.08
2023-05-05T20:26:03.138Z,86.29
2023-05-05T20:28:31.505Z,86.63
2023-05-05T20:30:57.986Z,87.06
2023-05-05T20:33:24.544Z,87.18
2023-05-05T20:35:50.943Z,86.88
2023-05-05T20:38:17.396Z,87.04
2023-05-05T20:40:43.869Z,87.13
2023-05-05T20:43:10.234Z,87.30
2023-05-05T20:45:37.107Z,87.84
2023-05-05T20:48:05.610Z,88.17
2023-05-05T20:50:32.258Z,88.51
2023-05-05T20:52:58.826Z,89.17
2023-05-05T20:55:25.770Z,89.26
2023-05-05T20:57:52.268Z,89.56
2023-05-05T21:00:18.697Z,89.52
2023-05-05T21:02:45.252Z,89.63
2023-05-05T21:05:11.816Z,89.88
2023-05-05T21:07:38.369Z,89.50
2023-05-05T21:10:05.399Z,89.88
2023-05-05T21:12:33.952Z,89.38
2023-05-05T21:15:00.532Z,89.55
2023-05-05T21:17:27.246Z,89.69
2023-05-05T21:19:54.304Z,89.71
2023-05-05T21:22:21.462Z,89.32
2023-05-05T21:24:48.151Z,89.38
2023-05-05T21:27:14.772Z,89.00
2023-05-05T21:29:41.184Z,89.33
2023-05-05T21:32:09.164Z,89.17
2023-05-05T21:34:36.108Z,89.05
2023-05-05T21:37:02.882Z,89.17
2023-05-05T21:39:30.789Z,89.42
2023-05-05T21:41:57.134Z,89.28
2023-05-05T21:44:25.448Z,89.58
2023-05-05T21:46:55.638Z,89.55
2023-05-05T21:49:22.200Z,89.68
2023-05-05T21:51:48.789Z,89.46
2023-05-05T21:54:15.799Z,89.54
2023-05-05T21:56:42.292Z,89.21
2023-05-05T21:59:08.817Z,89.29
2023-05-05T22:01:35.405Z,89.63
2023-05-05T22:04:02.077Z,89.49
2023-05-05T22:06:28.584Z,89.99
2023-05-05T22:08:56.656Z,90.11
2023-05-05T22:11:23.156Z,90.10
2023-05-05T22:13:49.505Z,90.17
2023-05-05T22:16:17.584Z,90.35
2023-05-05T22:18:44.319Z,90.30
2023-05-05T22:21:11.021Z,90.76
2023-05-05T22:23:39.010Z,90.59
2023-05-05T22:26:05.636Z,90.45
2023-05-05T22:28:32.206Z,90.93
2023-05-05T22:30:58.651Z,91.06
2023-05-05T22:33:25.125Z,91.40
2023-05-05T22:35:52.081Z,91.46
2023-05-05T22:38:18.681Z,91.39
2023-05-05T22:40:45.580Z,91.35
2023-05-05T22:43:12.188Z,91.26
2023-05-05T22:45:38.674Z,91.26
2023-05-05T22:48:05.819Z,91.59
2023-05-05T22:50:32.381Z,91.75
2023-05-05T22:52:58.824Z,91.49
2023-05-05T22:55:25.401Z,91.36
2023-05-05T22:57:52.633Z,91.54
2023-05-05T23:00:19.555Z,91.51
2023-05-05T23:02:46.193Z,92.16
2023-05-05T23:05:12.869Z,91.85
2023-05-05T23:07:39.410Z,92.16
2023-05-05T23:10:06.356Z,92.73
2023-05-05T23:12:33.045Z,92.49
2023-05-05T23:14:59.553Z,92.35
2023-05-05T23:17:26.086Z,92.48
2023-05-05T23:19:52.643Z,92.82
2023-05-05T23:22:19.080Z,92.92
2023-05-05T23:24:45.713Z,92.92
2023-05-05T23:27:12.764Z,93.32
2023-05-05T23:29:39.405Z,92.94
2023-05-05T23:32:06.348Z,93.18
2023-05-05T23:34:32.786Z,93.31
2023-05-05T23:36:59.201Z,92.80
2023-05-05T23:39:25.682Z,92.93
2023-05-05T23:41:52.061Z,92.82
2023-05-05T23:44:18.560Z,92.98
2023-05-05T23:46:44.956Z,92.98
2023-05-05T23:49:11.427Z,93.48
2023-05-05T23:51:37.804Z,93.64
2023-05-05T23:54:04.293Z,93.64
2023-05-05T23:56:31.027Z,93.51
2023-05-05T23:58:57.479Z,93.42
